Clifton, New Jersey
Current Conditions -  °F | °C
As of 6:51 PM on Thursday 18 Dec 2014 (Local Time) from KTEB Reporting Station
Overcast Overcast  
Wind Chill: 33°   Ceiling: 3400
Heat Index: 39°   Visibility: 10mi
Dew Point: 26°   Wind: 8mph
Humidity: 60%   Direction: 310°NW
Pressure: 29.97"   Gusts: NA
Location:  40.87°N, 74.16°W
Report Text: KTEB 182351Z 31007KT 10SM OVC034 04/M03 A2997 RMK AO2 SLP148 T00391033 10061 20039 51003
Loading
Personal Weather Stations






























Interactive Weather Map New forecast layout! Learn more

10-Day Weather Forecast

Advertisements
Track Severe Weather on mobile